CheckWX is a tool to help pilots better visualize weather data.  It is not intended as a substitute for an official pre-flight weather briefing.

14:29:52 UTC

KARG METAR
Walnut Ridge Regional Airport
Walnut Ridge, Arkansas, USA
Current

34 mins ago

KARG 251356Z AUTO 10SM -RA OVC008 22/21 A2997 RMK AO2 RAB20 SLP147 P0000 T02170206 $
Observed
Aug-25 @ 13:56 UTC
Visibility
10 SM
Flight Rules
IFR
Conditions
Light Rain
Cloud Levels
  • Overcast at 800' AGL
Temperature
22°C / 72°F
Dewpoint
21°C / 70°F
Humidity
94%
Altimeter
29.97" Hg
Pressure
1014.92 hPa
Current Rain
0.01"
Previous

1 hour ago

KARG 251316Z AUTO 03004KT OVC008 21/21 A2997 RMK AO2 PWINO RVRNO $
Observed
Aug-25 @ 13:16 UTC
Wind
  • 030° at 4 KTS
Visibility
Cloud Levels
  • Overcast at 800' AGL
Temperature
21°C / 70°F
Dewpoint
21°C / 70°F
Humidity
100%
Altimeter
29.97" Hg
Pressure
1014.92 hPa
Previous

2 hours ago

KARG 251256Z AUTO 05003KT 10SM OVC010 21/21 A2996 RMK AO2 RAE56 SLP146 P0001 T02110206
Observed
Aug-25 @ 12:56 UTC
Wind
  • 050° at 3 KTS
Visibility
10 SM
Flight Rules
MVFR
Cloud Levels
  • Overcast at 1,000' AGL
Temperature
21°C / 70°F
Dewpoint
21°C / 70°F
Humidity
100%
Altimeter
29.96" Hg
Pressure
1014.52 hPa
Current Rain
0.01"